createdAt,value
2018-07-26T00:00:13.263Z,100425.81
2018-07-26T00:02:41.645Z,100419.95
2018-07-26T00:05:09.725Z,100419.02
2018-07-26T00:07:37.787Z,100420.97
2018-07-26T00:10:07.263Z,100421.79
2018-07-26T00:12:35.460Z,100423.59
2018-07-26T00:15:03.724Z,100420.02
2018-07-26T00:17:31.855Z,100422.00
2018-07-26T00:20:00.076Z,100420.13
2018-07-26T00:22:28.155Z,100419.11
2018-07-26T00:24:56.255Z,100428.23
2018-07-26T00:27:24.415Z,100426.59
2018-07-26T00:29:52.475Z,100420.46
2018-07-26T00:32:20.560Z,100418.41
2018-07-26T00:34:48.628Z,100429.94
2018-07-26T00:37:16.771Z,100429.34
2018-07-26T00:39:44.926Z,100427.77
2018-07-26T00:42:12.999Z,100430.87
2018-07-26T00:44:41.104Z,100429.09
2018-07-26T00:47:09.183Z,100438.73
2018-07-26T00:49:37.270Z,100437.94
2018-07-26T00:52:05.342Z,100440.05
2018-07-26T00:54:33.415Z,100441.25
2018-07-26T00:57:01.518Z,100445.59
2018-07-26T00:59:29.744Z,100443.32
2018-07-26T01:01:57.986Z,100442.24
2018-07-26T01:04:26.087Z,100446.11
2018-07-26T01:06:54.159Z,100444.47
2018-07-26T01:09:22.224Z,100437.91
2018-07-26T01:11:50.316Z,100434.34
2018-07-26T01:14:18.427Z,100432.69
2018-07-26T01:16:46.516Z,100435.69
2018-07-26T01:19:14.586Z,100435.19
2018-07-26T01:21:42.697Z,100434.87
2018-07-26T01:24:10.777Z,100439.82
2018-07-26T01:26:38.854Z,100439.52
2018-07-26T01:29:06.955Z,100432.12
2018-07-26T01:31:35.090Z,100431.38
2018-07-26T01:34:03.167Z,100427.52
2018-07-26T01:36:31.331Z,100429.25
2018-07-26T01:38:59.423Z,100427.57
2018-07-26T01:41:27.517Z,100428.41
2018-07-26T01:44:06.959Z,100423.19
2018-07-26T01:46:35.051Z,100429.73
2018-07-26T01:49:03.163Z,100428.17
2018-07-26T01:51:31.246Z,100420.57
2018-07-26T01:53:59.399Z,100426.09
2018-07-26T01:56:27.591Z,100422.96
2018-07-26T01:58:55.654Z,100425.98
2018-07-26T02:01:23.741Z,100432.86
2018-07-26T02:03:51.844Z,100432.06
2018-07-26T02:06:20.022Z,100431.01
2018-07-26T02:08:48.134Z,100435.11
2018-07-26T02:11:16.222Z,100435.63
2018-07-26T02:13:44.372Z,100435.64
2018-07-26T02:16:12.463Z,100431.48
2018-07-26T02:18:40.762Z,100426.78
2018-07-26T02:21:08.863Z,100427.31
2018-07-26T02:23:37.032Z,100423.55
2018-07-26T02:26:05.155Z,100424.05
2018-07-26T02:28:33.231Z,100428.42
2018-07-26T02:31:01.441Z,100418.33
2018-07-26T02:33:29.486Z,100421.85
2018-07-26T02:35:57.602Z,100422.63
2018-07-26T02:38:25.688Z,100424.00
2018-07-26T02:40:53.759Z,100428.88
2018-07-26T02:43:21.864Z,100421.25
2018-07-26T02:45:49.900Z,100424.82
2018-07-26T02:48:17.993Z,100418.00
2018-07-26T02:50:46.095Z,100419.31
2018-07-26T02:53:14.262Z,100424.00
2018-07-26T02:55:42.339Z,100430.82
2018-07-26T02:58:10.423Z,100424.30
2018-07-26T03:00:38.501Z,100422.14
2018-07-26T03:03:06.580Z,100425.98
2018-07-26T03:05:34.679Z,100431.45
2018-07-26T03:08:02.783Z,100426.27
2018-07-26T03:10:30.867Z,100425.98
2018-07-26T03:12:58.954Z,100423.80
2018-07-26T03:15:27.027Z,100423.46
2018-07-26T03:17:55.107Z,100421.56
2018-07-26T03:20:23.182Z,100430.33
2018-07-26T03:22:51.289Z,100438.23
2018-07-26T03:25:19.347Z,100434.67
2018-07-26T03:27:47.412Z,100434.67
2018-07-26T03:30:15.490Z,100431.69
2018-07-26T03:32:43.576Z,100434.67
2018-07-26T03:35:11.653Z,100436.04
2018-07-26T03:37:39.776Z,100446.18
2018-07-26T03:40:07.863Z,100446.44
2018-07-26T03:42:35.971Z,100455.45
2018-07-26T03:45:04.101Z,100449.95
2018-07-26T03:47:32.190Z,100452.72
2018-07-26T03:50:00.263Z,100449.98
2018-07-26T03:52:28.383Z,100454.41
2018-07-26T03:54:56.448Z,100462.03
2018-07-26T03:57:24.539Z,100462.34
2018-07-26T03:59:52.638Z,100464.80
2018-07-26T04:02:20.784Z,100465.88
2018-07-26T04:04:48.859Z,100475.39
2018-07-26T04:07:16.986Z,100475.97
2018-07-26T04:09:45.082Z,100476.80
2018-07-26T04:12:13.151Z,100472.70
2018-07-26T04:14:41.272Z,100476.80
2018-07-26T04:17:09.359Z,100482.80
2018-07-26T04:19:37.435Z,100478.48
2018-07-26T04:22:05.547Z,100483.39
2018-07-26T04:24:33.623Z,100481.75
2018-07-26T04:27:01.742Z,100485.27
2018-07-26T04:29:29.839Z,100487.44
2018-07-26T04:31:58.007Z,100486.06
2018-07-26T04:34:26.042Z,100486.06
2018-07-26T04:36:54.179Z,100492.38
2018-07-26T04:39:22.327Z,100491.81
2018-07-26T04:41:50.414Z,100492.33
2018-07-26T04:44:18.475Z,100503.25
2018-07-26T04:46:46.561Z,100492.36
2018-07-26T04:49:14.666Z,100482.26
2018-07-26T04:51:42.798Z,100498.83
2018-07-26T04:54:10.883Z,100494.73
2018-07-26T04:56:39.001Z,100494.73
2018-07-26T04:59:07.075Z,100491.45
2018-07-26T05:01:35.182Z,100496.88
2018-07-26T05:04:03.349Z,100497.70
2018-07-26T05:06:31.543Z,100503.95
2018-07-26T05:08:59.625Z,100497.66
2018-07-26T05:11:27.718Z,100503.70
2018-07-26T05:13:55.838Z,100497.89
2018-07-26T05:16:23.938Z,100506.09
2018-07-26T05:18:52.157Z,100498.66
2018-07-26T05:21:20.257Z,100504.66
2018-07-26T05:23:48.367Z,100511.45
2018-07-26T05:26:16.427Z,100501.09
2018-07-26T05:28:44.674Z,100505.98
2018-07-26T05:31:12.747Z,100503.76
2018-07-26T05:33:40.862Z,100503.95
2018-07-26T05:36:08.928Z,100510.76
2018-07-26T05:38:37.035Z,100515.68
2018-07-26T05:41:05.108Z,100514.83
2018-07-26T05:43:33.208Z,100517.50
2018-07-26T05:46:01.300Z,100517.42
2018-07-26T05:48:29.404Z,100516.25
2018-07-26T05:50:57.533Z,100516.39
2018-07-26T05:53:25.663Z,100524.59
2018-07-26T05:55:53.689Z,100525.37
2018-07-26T05:58:21.838Z,100524.73
2018-07-26T06:00:49.905Z,100522.44
2018-07-26T06:03:18.015Z,100533.30
2018-07-26T06:05:46.110Z,100530.30
2018-07-26T06:08:14.214Z,100529.70
2018-07-26T06:10:42.290Z,100528.55
2018-07-26T06:13:10.451Z,100530.97
2018-07-26T06:15:38.555Z,100530.12
2018-07-26T06:18:06.637Z,100538.83
2018-07-26T06:20:34.762Z,100537.18
2018-07-26T06:23:02.910Z,100534.00
2018-07-26T06:25:31.071Z,100534.73
2018-07-26T06:27:59.154Z,100533.64
2018-07-26T06:30:27.228Z,100537.45
2018-07-26T06:32:57.792Z,100532.50
2018-07-26T06:35:26.003Z,100533.82
2018-07-26T06:37:54.972Z,100539.75
2018-07-26T06:40:23.124Z,100537.72
2018-07-26T06:42:51.269Z,100534.94
2018-07-26T06:45:19.448Z,100535.13
2018-07-26T06:47:47.820Z,100531.96
2018-07-26T06:50:16.414Z,100535.20
2018-07-26T06:52:45.124Z,100533.11
2018-07-26T06:55:13.300Z,100535.25
2018-07-26T06:57:41.550Z,100540.92
2018-07-26T07:00:10.172Z,100539.23
2018-07-26T07:02:38.626Z,100536.23
2018-07-26T07:05:06.722Z,100538.45
2018-07-26T07:07:34.814Z,100546.25
2018-07-26T07:10:02.944Z,100550.09
2018-07-26T07:12:31.136Z,100544.02
2018-07-26T07:14:59.391Z,100550.47
2018-07-26T07:17:27.668Z,100546.86
2018-07-26T07:19:55.793Z,100543.67
2018-07-26T07:22:23.959Z,100544.15
2018-07-26T07:24:52.053Z,100552.93
2018-07-26T07:27:20.151Z,100547.09
2018-07-26T07:29:48.244Z,100548.58
2018-07-26T07:32:16.379Z,100546.63
2018-07-26T07:34:44.510Z,100541.44
2018-07-26T07:37:12.698Z,100541.67
2018-07-26T07:39:40.803Z,100538.58
2018-07-26T07:42:08.882Z,100538.89
2018-07-26T07:44:37.277Z,100539.55
2018-07-26T07:47:05.692Z,100532.42
2018-07-26T07:49:33.808Z,100529.81
2018-07-26T07:52:01.973Z,100531.15
2018-07-26T07:54:30.126Z,100537.69
2018-07-26T07:56:58.199Z,100539.28
2018-07-26T07:59:26.313Z,100536.09
2018-07-26T08:01:54.362Z,100536.23
2018-07-26T08:04:22.547Z,100532.51
2018-07-26T08:06:50.923Z,100529.38
2018-07-26T08:09:18.999Z,100527.34
2018-07-26T08:11:47.080Z,100528.27
2018-07-26T08:14:15.151Z,100521.52
2018-07-26T08:16:43.351Z,100522.58
2018-07-26T08:19:11.473Z,100519.87
2018-07-26T08:21:39.579Z,100518.49
2018-07-26T08:24:07.723Z,100519.81
2018-07-26T08:26:35.771Z,100520.72
2018-07-26T08:29:03.865Z,100513.89
2018-07-26T08:31:31.931Z,100513.72
2018-07-26T08:34:00.024Z,100519.91
2018-07-26T08:36:28.141Z,100517.49
2018-07-26T08:38:56.302Z,100525.20
2018-07-26T08:41:24.414Z,100519.03
2018-07-26T08:43:52.498Z,100524.39
2018-07-26T08:46:20.558Z,100512.48
2018-07-26T08:48:48.650Z,100510.38
2018-07-26T08:51:16.790Z,100509.34
2018-07-26T08:53:45.111Z,100508.95
2018-07-26T08:56:16.564Z,100515.48
2018-07-26T08:58:45.098Z,100511.24
2018-07-26T09:01:14.310Z,100509.50
2018-07-26T09:03:42.384Z,100511.41
2018-07-26T09:06:11.060Z,100508.80
2018-07-26T09:11:42.329Z,100509.37
2018-07-26T09:14:11.701Z,100499.30
2018-07-26T09:16:39.787Z,100498.98
2018-07-26T09:19:08.292Z,100495.33
2018-07-26T09:21:36.442Z,100491.04
2018-07-26T09:24:06.691Z,100493.72
2018-07-26T09:26:34.747Z,100493.39
2018-07-26T09:29:02.899Z,100490.12
2018-07-26T09:31:30.951Z,100493.59
2018-07-26T09:33:59.087Z,100492.98
2018-07-26T09:36:28.238Z,100491.19
2018-07-26T09:38:56.675Z,100485.66
2018-07-26T09:41:24.952Z,100485.47
2018-07-26T09:43:53.023Z,100485.80
2018-07-26T09:46:21.444Z,100488.48
2018-07-26T09:48:49.527Z,100476.68
2018-07-26T09:51:17.570Z,100485.86
2018-07-26T09:53:45.880Z,100478.77
2018-07-26T09:56:13.940Z,100482.19
2018-07-26T09:58:42.046Z,100482.72
2018-07-26T10:01:16.331Z,100478.85
2018-07-26T10:03:44.408Z,100482.75
2018-07-26T10:06:12.500Z,100475.88
2018-07-26T10:08:40.579Z,100474.64
2018-07-26T10:11:08.664Z,100474.69
2018-07-26T10:13:36.808Z,100473.87
2018-07-26T10:16:04.978Z,100475.11
2018-07-26T10:18:33.036Z,100471.88
2018-07-26T10:21:01.184Z,100467.28
2018-07-26T10:23:29.406Z,100462.97
2018-07-26T10:25:57.511Z,100462.06
2018-07-26T10:28:26.823Z,100454.17
2018-07-26T10:30:54.894Z,100465.14
2018-07-26T10:33:23.083Z,100463.41
2018-07-26T10:35:51.155Z,100456.46
2018-07-26T10:38:19.197Z,100456.69
2018-07-26T10:40:47.261Z,100459.00
2018-07-26T10:43:15.450Z,100449.02
2018-07-26T10:45:43.500Z,100449.37
2018-07-26T10:48:11.606Z,100441.57
2018-07-26T10:50:39.692Z,100443.30
2018-07-26T10:53:07.748Z,100434.93
2018-07-26T10:55:35.825Z,100440.05
2018-07-26T10:58:03.877Z,100437.44
2018-07-26T11:00:31.995Z,100439.95
2018-07-26T11:03:00.104Z,100437.33
2018-07-26T11:05:28.259Z,100440.80
2018-07-26T11:07:56.322Z,100430.17
2018-07-26T11:10:24.402Z,100423.28
2018-07-26T11:12:52.459Z,100423.23
2018-07-26T11:15:25.906Z,100425.58
2018-07-26T11:17:54.039Z,100424.56
2018-07-26T11:20:22.186Z,100418.83
2018-07-26T11:22:50.371Z,100416.42
2018-07-26T11:25:18.527Z,100419.94
2018-07-26T11:27:46.908Z,100413.23
2018-07-26T11:30:14.994Z,100417.77
2018-07-26T11:32:43.054Z,100417.41
2018-07-26T11:35:11.872Z,100410.61
2018-07-26T11:37:39.966Z,100414.98
2018-07-26T11:40:08.016Z,100407.84
2018-07-26T11:42:36.071Z,100408.88
2018-07-26T11:45:04.892Z,100407.48
2018-07-26T11:47:32.950Z,100401.16
2018-07-26T11:50:01.106Z,100393.08
2018-07-26T11:52:29.238Z,100395.28
2018-07-26T11:54:57.288Z,100393.75
2018-07-26T11:57:25.453Z,100387.98
2018-07-26T11:59:53.577Z,100378.39
2018-07-26T12:02:21.755Z,100386.95
2018-07-26T12:04:49.780Z,100385.30
2018-07-26T12:07:17.831Z,100385.52
2018-07-26T12:09:45.886Z,100383.69
2018-07-26T12:12:13.964Z,100380.18
2018-07-26T12:14:42.096Z,100375.91
2018-07-26T12:17:10.427Z,100372.45
2018-07-26T12:19:39.047Z,100371.55
2018-07-26T12:22:07.575Z,100371.78
2018-07-26T12:24:35.646Z,100365.87
2018-07-26T12:27:04.022Z,100359.38
2018-07-26T12:29:32.210Z,100357.75
2018-07-26T12:32:00.444Z,100348.55
2018-07-26T12:34:28.493Z,100339.73
2018-07-26T12:36:58.438Z,100348.16
2018-07-26T12:39:26.664Z,100339.45
2018-07-26T12:41:54.778Z,100337.14
2018-07-26T12:44:23.817Z,100336.66
2018-07-26T12:46:52.240Z,100333.50
2018-07-26T12:49:21.900Z,100335.32
2018-07-26T12:51:50.257Z,100336.71
2018-07-26T12:54:19.157Z,100331.79
2018-07-26T12:56:47.491Z,100333.66
2018-07-26T12:59:16.087Z,100328.55
2018-07-26T13:01:44.983Z,100318.86
2018-07-26T13:04:14.765Z,100323.20
2018-07-26T13:06:44.496Z,100325.66
2018-07-26T13:09:17.527Z,100316.20
2018-07-26T13:11:45.816Z,100320.22
2018-07-26T13:14:13.979Z,100314.70
2018-07-26T13:16:42.211Z,100312.91
2018-07-26T13:19:10.599Z,100313.27
2018-07-26T13:21:40.306Z,100312.00
2018-07-26T13:24:09.695Z,100302.36
2018-07-26T13:26:37.892Z,100304.81
2018-07-26T13:29:07.058Z,100298.65
2018-07-26T13:31:35.888Z,100295.21
2018-07-26T13:34:04.118Z,100299.22
2018-07-26T13:36:32.299Z,100300.58
2018-07-26T13:39:01.779Z,100304.49
2018-07-26T13:41:30.738Z,100299.64
2018-07-26T13:43:59.928Z,100294.48
2018-07-26T13:46:28.055Z,100287.78
2018-07-26T13:48:56.990Z,100289.81
2018-07-26T13:51:26.744Z,100282.05
2018-07-26T13:53:55.608Z,100285.16
2018-07-26T13:56:23.826Z,100282.81
2018-07-26T13:58:56.319Z,100281.57
2018-07-26T14:01:24.484Z,100271.41
2018-07-26T14:03:53.051Z,100273.15
2018-07-26T14:06:21.143Z,100271.18
2018-07-26T14:08:55.140Z,100266.91
2018-07-26T14:11:23.591Z,100261.05
2018-07-26T14:13:52.709Z,100256.70
2018-07-26T14:16:20.966Z,100260.42
2018-07-26T14:18:49.073Z,100255.67
2018-07-26T14:21:18.108Z,100255.76
2018-07-26T14:23:46.440Z,100259.19
2018-07-26T14:26:14.817Z,100249.36
2018-07-26T14:28:42.988Z,100251.38
2018-07-26T14:31:12.486Z,100245.42
2018-07-26T14:33:41.430Z,100239.17
2018-07-26T14:36:10.341Z,100237.57
2018-07-26T14:38:38.395Z,100238.28
2018-07-26T14:41:06.570Z,100237.31
2018-07-26T14:43:34.664Z,100239.84
2018-07-26T14:46:02.715Z,100233.42
2018-07-26T14:48:30.787Z,100235.92
2018-07-26T14:50:58.959Z,100231.59
2018-07-26T14:53:27.358Z,100229.05
2018-07-26T14:55:55.438Z,100226.53
2018-07-26T14:58:23.558Z,100224.31
2018-07-26T15:00:51.616Z,100227.21
2018-07-26T15:03:19.780Z,100220.97
2018-07-26T15:05:50.169Z,100223.61
2018-07-26T15:08:20.291Z,100212.93
2018-07-26T15:10:53.301Z,100210.45
2018-07-26T15:13:21.791Z,100211.95
2018-07-26T15:15:50.093Z,100208.59
2018-07-26T15:18:19.092Z,100197.45
2018-07-26T15:20:47.278Z,100196.50
2018-07-26T15:23:15.944Z,100199.81
2018-07-26T15:25:44.210Z,100201.20
2018-07-26T15:28:12.448Z,100198.25
2018-07-26T15:30:41.328Z,100202.08
2018-07-26T15:33:09.533Z,100197.45
2018-07-26T15:35:37.654Z,100202.23
2018-07-26T15:38:05.997Z,100193.58
2018-07-26T15:40:34.557Z,100201.48
2018-07-26T15:43:03.180Z,100195.22
2018-07-26T15:45:31.371Z,100191.30
2018-07-26T15:47:59.514Z,100192.47
2018-07-26T15:50:27.905Z,100197.02
2018-07-26T15:52:56.682Z,100195.13
2018-07-26T15:55:26.043Z,100192.63
2018-07-26T15:57:54.166Z,100193.86
2018-07-26T16:00:22.302Z,100196.87
2018-07-26T16:02:51.154Z,100199.00
2018-07-26T16:05:19.249Z,100196.80
2018-07-26T16:07:47.267Z,100197.95
2018-07-26T16:10:15.321Z,100197.26
2018-07-26T16:12:43.371Z,100192.93
2018-07-26T16:15:11.793Z,100204.59
2018-07-26T16:17:40.074Z,100196.05
2018-07-26T16:20:09.123Z,100192.17
2018-07-26T16:22:37.187Z,100193.66
2018-07-26T16:25:06.339Z,100195.98
2018-07-26T16:27:34.415Z,100206.56
2018-07-26T16:30:02.559Z,100201.05
2018-07-26T16:32:30.674Z,100200.47
2018-07-26T16:34:58.720Z,100202.16
2018-07-26T16:37:26.794Z,100193.52
2018-07-26T16:39:54.910Z,100201.94
2018-07-26T16:42:22.967Z,100202.17
2018-07-26T16:44:51.131Z,100192.94
2018-07-26T16:47:19.186Z,100188.22
2018-07-26T16:49:47.281Z,100187.66
2018-07-26T16:52:15.369Z,100185.92
2018-07-26T16:54:43.435Z,100196.47
2018-07-26T16:57:11.516Z,100189.98
2018-07-26T16:59:39.612Z,100189.78
2018-07-26T17:02:07.695Z,100190.80
2018-07-26T17:04:36.728Z,100191.48
2018-07-26T17:07:04.853Z,100187.55
2018-07-26T17:09:33.107Z,100197.16
2018-07-26T17:12:01.241Z,100190.36
2018-07-26T17:14:29.323Z,100188.89
2018-07-26T17:16:57.391Z,100197.39
2018-07-26T17:19:25.470Z,100202.41
2018-07-26T17:21:53.533Z,100188.28
2018-07-26T17:24:21.617Z,100196.09
2018-07-26T17:26:49.690Z,100196.95
2018-07-26T17:29:17.815Z,100202.91
2018-07-26T17:31:45.891Z,100194.49
2018-07-26T17:34:13.959Z,100197.56
2018-07-26T17:36:42.033Z,100196.91
2018-07-26T17:39:11.262Z,100190.69
2018-07-26T17:41:39.491Z,100195.61
2018-07-26T17:44:07.582Z,100202.38
2018-07-26T17:46:35.759Z,100204.30
2018-07-26T17:49:03.895Z,100205.81
2018-07-26T17:51:32.206Z,100208.92
2018-07-26T17:54:00.280Z,100211.36
2018-07-26T17:56:28.450Z,100217.28
2018-07-26T17:58:56.523Z,100217.45
2018-07-26T18:01:24.620Z,100220.17
2018-07-26T18:03:52.857Z,100221.28
2018-07-26T18:06:20.912Z,100217.07
2018-07-26T18:08:48.983Z,100219.70
2018-07-26T18:11:17.052Z,100222.53
2018-07-26T18:13:45.167Z,100220.76
2018-07-26T18:16:13.166Z,100227.47
2018-07-26T18:18:41.291Z,100229.53
2018-07-26T18:21:09.342Z,100233.34
2018-07-26T18:23:38.408Z,100232.81
2018-07-26T18:26:06.932Z,100229.14
2018-07-26T18:28:35.022Z,100238.00
2018-07-26T18:31:03.455Z,100231.04
2018-07-26T18:33:31.673Z,100242.99
2018-07-26T18:35:59.752Z,100235.69
2018-07-26T18:38:27.923Z,100240.93
2018-07-26T18:40:56.000Z,100240.74
2018-07-26T18:43:24.417Z,100235.91
2018-07-26T18:45:52.537Z,100240.56
2018-07-26T18:48:20.785Z,100243.16
2018-07-26T18:50:48.907Z,100249.03
2018-07-26T18:53:18.250Z,100248.33
2018-07-26T18:55:46.366Z,100249.14
2018-07-26T18:58:15.242Z,100255.28
2018-07-26T19:00:44.023Z,100257.37
2018-07-26T19:03:12.225Z,100261.64
2018-07-26T19:05:41.212Z,100263.84
2018-07-26T19:08:09.975Z,100261.64
2018-07-26T19:10:39.427Z,100263.57
2018-07-26T19:13:07.554Z,100266.80
2018-07-26T19:15:35.760Z,100273.82
2018-07-26T19:18:04.188Z,100272.67
2018-07-26T19:20:33.034Z,100280.64
2018-07-26T19:23:02.260Z,100282.72
2018-07-26T19:25:32.267Z,100282.81
2018-07-26T19:28:00.763Z,100285.28
2018-07-26T19:30:30.131Z,100285.67
2018-07-26T19:32:59.120Z,100289.86
2018-07-26T19:35:54.280Z,100288.78
2018-07-26T19:38:22.423Z,100295.02
2018-07-26T19:40:50.560Z,100297.83
2018-07-26T19:43:19.972Z,100296.89
2018-07-26T19:45:48.123Z,100300.36
2018-07-26T19:48:16.588Z,100301.30
2018-07-26T19:50:44.893Z,100303.69
2018-07-26T19:53:13.079Z,100312.85
2018-07-26T19:55:41.305Z,100302.83
2018-07-26T19:58:10.903Z,100306.06
2018-07-26T20:00:39.414Z,100308.19
2018-07-26T20:03:08.749Z,100304.44
2018-07-26T20:05:37.212Z,100312.23
2018-07-26T20:08:05.380Z,100312.44
2018-07-26T20:10:33.541Z,100310.53
2018-07-26T20:13:01.646Z,100316.59
2018-07-26T20:15:30.538Z,100317.09
2018-07-26T20:17:59.890Z,100319.80
2018-07-26T20:20:28.017Z,100321.24
2018-07-26T20:22:56.142Z,100318.98
2018-07-26T20:25:25.727Z,100326.98
2018-07-26T20:27:53.810Z,100325.63
2018-07-26T20:30:21.952Z,100329.75
2018-07-26T20:32:50.342Z,100330.39
2018-07-26T20:35:19.004Z,100341.62
2018-07-26T20:37:47.395Z,100341.38
2018-07-26T20:40:15.573Z,100344.91
2018-07-26T20:42:43.937Z,100343.64
2018-07-26T20:45:14.244Z,100344.20
2018-07-26T20:47:42.357Z,100340.22
2018-07-26T20:50:11.491Z,100342.64
2018-07-26T20:52:39.738Z,100346.61
2018-07-26T20:55:08.090Z,100342.63
2018-07-26T20:57:37.387Z,100344.74
2018-07-26T21:00:08.856Z,100347.84
2018-07-26T21:02:36.977Z,100346.17
2018-07-26T21:05:06.501Z,100355.04
2018-07-26T21:07:34.666Z,100358.91
2018-07-26T21:10:03.931Z,100358.33
2018-07-26T21:12:32.424Z,100363.73
2018-07-26T21:15:00.513Z,100365.41
2018-07-26T21:17:29.108Z,100367.23
2018-07-26T21:19:58.199Z,100367.13
2018-07-26T21:22:27.055Z,100370.30
2018-07-26T21:24:55.496Z,100372.16
2018-07-26T21:27:23.563Z,100369.59
2018-07-26T21:29:51.732Z,100374.05
2018-07-26T21:32:19.815Z,100369.16
2018-07-26T21:34:48.368Z,100380.14
2018-07-26T21:37:16.589Z,100378.58
2018-07-26T21:39:44.826Z,100385.41
2018-07-26T21:42:13.037Z,100382.36
2018-07-26T21:44:42.197Z,100381.39
2018-07-26T21:47:10.449Z,100378.11
2018-07-26T21:49:39.745Z,100378.55
2018-07-26T21:52:07.858Z,100387.66
2018-07-26T21:54:35.986Z,100382.73
2018-07-26T21:57:05.046Z,100380.91
2018-07-26T21:59:33.551Z,100386.84
2018-07-26T22:02:01.970Z,100387.52
2018-07-26T22:04:30.036Z,100389.96
2018-07-26T22:06:58.183Z,100392.98
2018-07-26T22:09:26.603Z,100392.73
2018-07-26T22:11:55.667Z,100384.20
2018-07-26T22:14:24.891Z,100391.56
2018-07-26T22:16:53.114Z,100392.67
2018-07-26T22:19:21.472Z,100393.91
2018-07-26T22:21:49.672Z,100392.31
2018-07-26T22:24:17.795Z,100395.72
2018-07-26T22:26:46.781Z,100396.97
2018-07-26T22:29:14.892Z,100394.84
2018-07-26T22:31:42.993Z,100396.09
2018-07-26T22:34:11.117Z,100391.11
2018-07-26T22:36:39.342Z,100387.15
2018-07-26T22:39:09.428Z,100391.92
2018-07-26T22:41:38.404Z,100392.92
2018-07-26T22:44:06.465Z,100394.39
2018-07-26T22:46:34.515Z,100391.19
2018-07-26T22:49:02.589Z,100397.14
2018-07-26T22:51:30.676Z,100394.48
2018-07-26T22:53:58.753Z,100389.84
2018-07-26T22:56:26.811Z,100392.83
2018-07-26T22:58:55.015Z,100395.11
2018-07-26T23:01:23.143Z,100392.09
2018-07-26T23:03:51.212Z,100395.22
2018-07-26T23:06:20.251Z,100402.98
2018-07-26T23:08:48.329Z,100397.94
2018-07-26T23:11:16.400Z,100400.77
2018-07-26T23:13:44.447Z,100393.20
2018-07-26T23:16:12.510Z,100394.13
2018-07-26T23:18:40.576Z,100397.41
2018-07-26T23:21:08.720Z,100400.53
2018-07-26T23:23:36.782Z,100393.20
2018-07-26T23:26:04.848Z,100396.16
2018-07-26T23:28:32.898Z,100399.30
2018-07-26T23:31:00.974Z,100393.65
2018-07-26T23:33:29.045Z,100393.62
2018-07-26T23:35:57.139Z,100399.23
2018-07-26T23:38:25.193Z,100393.05
2018-07-26T23:40:53.260Z,100400.23
2018-07-26T23:43:21.415Z,100393.47
2018-07-26T23:45:49.484Z,100395.44
2018-07-26T23:48:17.899Z,100395.77
2018-07-26T23:50:47.347Z,100390.89
2018-07-26T23:53:15.431Z,100394.73
2018-07-26T23:55:43.497Z,100394.00
2018-07-26T23:58:11.575Z,100391.80
